sensor_id;sensor_type;location;lat;lon;timestamp;temperature;humidity
40257;DHT22;25977;45.462;9.210;2024-02-15T00:00:22;12.90;90.90
40257;DHT22;25977;45.462;9.210;2024-02-15T00:02:48;12.90;90.90
40257;DHT22;25977;45.462;9.210;2024-02-15T00:05:14;12.90;90.90
40257;DHT22;25977;45.462;9.210;2024-02-15T00:07:42;12.90;91.00
40257;DHT22;25977;45.462;9.210;2024-02-15T00:10:09;12.90;91.00
40257;DHT22;25977;45.462;9.210;2024-02-15T00:12:35;12.90;91.10
40257;DHT22;25977;45.462;9.210;2024-02-15T00:15:01;12.80;91.00
40257;DHT22;25977;45.462;9.210;2024-02-15T00:17:28;12.80;91.00
40257;DHT22;25977;45.462;9.210;2024-02-15T00:19:56;12.80;91.00
40257;DHT22;25977;45.462;9.210;2024-02-15T00:22:22;12.80;91.10
40257;DHT22;25977;45.462;9.210;2024-02-15T00:24:48;12.80;91.10
40257;DHT22;25977;45.462;9.210;2024-02-15T00:27:17;12.80;91.10
40257;DHT22;25977;45.462;9.210;2024-02-15T00:29:42;12.80;91.00
40257;DHT22;25977;45.462;9.210;2024-02-15T00:32:09;12.80;91.10
40257;DHT22;25977;45.462;9.210;2024-02-15T00:34:38;12.80;91.00
40257;DHT22;25977;45.462;9.210;2024-02-15T00:37:07;12.80;91.00
40257;DHT22;25977;45.462;9.210;2024-02-15T00:39:32;12.80;91.10
40257;DHT22;25977;45.462;9.210;2024-02-15T00:41:58;12.70;91.20
40257;DHT22;25977;45.462;9.210;2024-02-15T00:44:26;12.70;91.20
40257;DHT22;25977;45.462;9.210;2024-02-15T00:46:52;12.70;91.20
40257;DHT22;25977;45.462;9.210;2024-02-15T00:49:17;12.80;91.30
40257;DHT22;25977;45.462;9.210;2024-02-15T00:51:46;12.70;91.30
40257;DHT22;25977;45.462;9.210;2024-02-15T00:54:12;12.70;91.30
40257;DHT22;25977;45.462;9.210;2024-02-15T00:56:38;12.70;91.40
40257;DHT22;25977;45.462;9.210;2024-02-15T00:59:03;12.70;91.40
40257;DHT22;25977;45.462;9.210;2024-02-15T01:01:30;12.70;91.50
40257;DHT22;25977;45.462;9.210;2024-02-15T01:03:56;12.70;91.50
40257;DHT22;25977;45.462;9.210;2024-02-15T01:06:22;12.60;91.50
40257;DHT22;25977;45.462;9.210;2024-02-15T01:08:47;12.60;91.60
40257;DHT22;25977;45.462;9.210;2024-02-15T01:11:13;12.60;91.70
40257;DHT22;25977;45.462;9.210;2024-02-15T01:13:39;12.60;91.80
40257;DHT22;25977;45.462;9.210;2024-02-15T01:16:06;12.60;91.80
40257;DHT22;25977;45.462;9.210;2024-02-15T01:18:32;12.50;91.70
40257;DHT22;25977;45.462;9.210;2024-02-15T01:20:58;12.50;91.60
40257;DHT22;25977;45.462;9.210;2024-02-15T01:23:24;12.40;91.60
40257;DHT22;25977;45.462;9.210;2024-02-15T01:25:52;12.40;91.50
40257;DHT22;25977;45.462;9.210;2024-02-15T01:28:18;12.40;91.70
40257;DHT22;25977;45.462;9.210;2024-02-15T01:30:43;12.40;91.70
40257;DHT22;25977;45.462;9.210;2024-02-15T01:33:17;12.40;91.60
40257;DHT22;25977;45.462;9.210;2024-02-15T01:35:43;12.40;91.50
40257;DHT22;25977;45.462;9.210;2024-02-15T01:38:09;12.40;91.50
40257;DHT22;25977;45.462;9.210;2024-02-15T01:40:34;12.40;91.50
40257;DHT22;25977;45.462;9.210;2024-02-15T01:43:00;12.40;91.50
40257;DHT22;25977;45.462;9.210;2024-02-15T01:45:26;12.40;91.40
40257;DHT22;25977;45.462;9.210;2024-02-15T01:47:53;12.40;91.40
40257;DHT22;25977;45.462;9.210;2024-02-15T01:50:20;12.40;91.40
40257;DHT22;25977;45.462;9.210;2024-02-15T01:52:48;12.30;91.40
40257;DHT22;25977;45.462;9.210;2024-02-15T01:55:15;12.30;91.50
40257;DHT22;25977;45.462;9.210;2024-02-15T01:57:45;12.30;91.60
40257;DHT22;25977;45.462;9.210;2024-02-15T02:00:14;12.30;91.50
40257;DHT22;25977;45.462;9.210;2024-02-15T02:02:42;12.30;91.60
40257;DHT22;25977;45.462;9.210;2024-02-15T02:05:08;12.30;91.60
40257;DHT22;25977;45.462;9.210;2024-02-15T02:07:34;12.20;91.40
40257;DHT22;25977;45.462;9.210;2024-02-15T02:10:00;12.20;91.50
40257;DHT22;25977;45.462;9.210;2024-02-15T02:12:26;12.20;91.40
40257;DHT22;25977;45.462;9.210;2024-02-15T02:14:56;12.20;91.50
40257;DHT22;25977;45.462;9.210;2024-02-15T02:17:21;12.30;91.60
40257;DHT22;25977;45.462;9.210;2024-02-15T02:19:48;12.20;91.50
40257;DHT22;25977;45.462;9.210;2024-02-15T02:22:17;12.20;91.50
40257;DHT22;25977;45.462;9.210;2024-02-15T02:27:19;12.10;91.50
40257;DHT22;25977;45.462;9.210;2024-02-15T02:29:48;12.10;91.80
40257;DHT22;25977;45.462;9.210;2024-02-15T02:32:14;12.20;91.60
40257;DHT22;25977;45.462;9.210;2024-02-15T02:34:39;12.10;91.60
40257;DHT22;25977;45.462;9.210;2024-02-15T02:37:10;12.20;91.60
40257;DHT22;25977;45.462;9.210;2024-02-15T02:39:35;12.20;91.50
40257;DHT22;25977;45.462;9.210;2024-02-15T02:42:01;12.10;91.50
40257;DHT22;25977;45.462;9.210;2024-02-15T02:44:27;12.20;91.60
40257;DHT22;25977;45.462;9.210;2024-02-15T02:46:52;12.10;91.60
40257;DHT22;25977;45.462;9.210;2024-02-15T02:49:18;12.20;91.70
40257;DHT22;25977;45.462;9.210;2024-02-15T02:51:44;12.10;91.70
40257;DHT22;25977;45.462;9.210;2024-02-15T02:54:10;12.10;91.50
40257;DHT22;25977;45.462;9.210;2024-02-15T02:56:36;12.20;91.70
40257;DHT22;25977;45.462;9.210;2024-02-15T02:59:02;12.20;91.60
40257;DHT22;25977;45.462;9.210;2024-02-15T03:01:29;12.10;91.50
40257;DHT22;25977;45.462;9.210;2024-02-15T03:03:56;12.10;91.50
40257;DHT22;25977;45.462;9.210;2024-02-15T03:06:22;12.10;91.50
40257;DHT22;25977;45.462;9.210;2024-02-15T03:08:50;12.10;91.40
40257;DHT22;25977;45.462;9.210;2024-02-15T03:11:25;12.10;91.40
40257;DHT22;25977;45.462;9.210;2024-02-15T03:13:50;12.10;91.40
40257;DHT22;25977;45.462;9.210;2024-02-15T03:16:16;12.00;91.30
40257;DHT22;25977;45.462;9.210;2024-02-15T03:18:42;12.10;91.30
40257;DHT22;25977;45.462;9.210;2024-02-15T03:21:08;12.10;91.40
40257;DHT22;25977;45.462;9.210;2024-02-15T03:23:37;12.00;91.30
40257;DHT22;25977;45.462;9.210;2024-02-15T03:26:02;12.00;91.20
40257;DHT22;25977;45.462;9.210;2024-02-15T03:28:31;12.00;91.20
40257;DHT22;25977;45.462;9.210;2024-02-15T03:30:56;12.00;91.20
40257;DHT22;25977;45.462;9.210;2024-02-15T03:33:22;12.00;91.30
40257;DHT22;25977;45.462;9.210;2024-02-15T03:35:51;12.00;91.20
40257;DHT22;25977;45.462;9.210;2024-02-15T03:38:17;12.00;91.30
40257;DHT22;25977;45.462;9.210;2024-02-15T03:40:43;12.00;91.30
40257;DHT22;25977;45.462;9.210;2024-02-15T03:43:09;12.00;91.30
40257;DHT22;25977;45.462;9.210;2024-02-15T03:45:34;12.00;91.40
40257;DHT22;25977;45.462;9.210;2024-02-15T03:48:00;12.00;91.40
40257;DHT22;25977;45.462;9.210;2024-02-15T03:50:26;12.00;91.30
40257;DHT22;25977;45.462;9.210;2024-02-15T03:52:51;12.00;91.40
40257;DHT22;25977;45.462;9.210;2024-02-15T03:55:17;11.90;91.40
40257;DHT22;25977;45.462;9.210;2024-02-15T03:57:43;11.90;91.40
40257;DHT22;25977;45.462;9.210;2024-02-15T04:00:12;11.90;91.40
40257;DHT22;25977;45.462;9.210;2024-02-15T04:02:46;11.90;91.40
40257;DHT22;25977;45.462;9.210;2024-02-15T04:05:14;11.90;91.40
40257;DHT22;25977;45.462;9.210;2024-02-15T04:07:40;11.90;91.50
40257;DHT22;25977;45.462;9.210;2024-02-15T04:10:06;11.90;91.50
40257;DHT22;25977;45.462;9.210;2024-02-15T04:12:32;11.90;91.50
40257;DHT22;25977;45.462;9.210;2024-02-15T04:14:58;11.90;91.60
40257;DHT22;25977;45.462;9.210;2024-02-15T04:17:40;11.90;91.60
40257;DHT22;25977;45.462;9.210;2024-02-15T04:20:08;11.90;91.60
40257;DHT22;25977;45.462;9.210;2024-02-15T04:22:34;11.90;91.80
40257;DHT22;25977;45.462;9.210;2024-02-15T04:25:06;11.90;91.60
40257;DHT22;25977;45.462;9.210;2024-02-15T04:27:35;11.90;91.60
40257;DHT22;25977;45.462;9.210;2024-02-15T04:30:04;11.80;91.50
40257;DHT22;25977;45.462;9.210;2024-02-15T04:32:32;11.80;91.40
40257;DHT22;25977;45.462;9.210;2024-02-15T04:35:00;11.80;91.60
40257;DHT22;25977;45.462;9.210;2024-02-15T04:37:26;11.80;91.60
40257;DHT22;25977;45.462;9.210;2024-02-15T04:39:55;11.70;91.60
40257;DHT22;25977;45.462;9.210;2024-02-15T04:42:21;11.70;91.50
40257;DHT22;25977;45.462;9.210;2024-02-15T04:44:48;11.70;91.50
40257;DHT22;25977;45.462;9.210;2024-02-15T04:47:14;11.70;91.50
40257;DHT22;25977;45.462;9.210;2024-02-15T04:49:40;11.60;91.40
40257;DHT22;25977;45.462;9.210;2024-02-15T04:52:07;11.60;91.40
40257;DHT22;25977;45.462;9.210;2024-02-15T04:54:33;11.60;91.50
40257;DHT22;25977;45.462;9.210;2024-02-15T04:56:59;11.60;91.50
40257;DHT22;25977;45.462;9.210;2024-02-15T04:59:24;11.50;91.60
40257;DHT22;25977;45.462;9.210;2024-02-15T05:01:54;11.50;91.70
40257;DHT22;25977;45.462;9.210;2024-02-15T05:04:22;11.50;91.80
40257;DHT22;25977;45.462;9.210;2024-02-15T05:06:48;11.50;91.90
40257;DHT22;25977;45.462;9.210;2024-02-15T05:09:14;11.50;91.90
40257;DHT22;25977;45.462;9.210;2024-02-15T05:11:40;11.50;92.00
40257;DHT22;25977;45.462;9.210;2024-02-15T05:14:07;11.50;92.00
40257;DHT22;25977;45.462;9.210;2024-02-15T05:16:36;11.50;92.00
40257;DHT22;25977;45.462;9.210;2024-02-15T05:19:11;11.50;92.10
40257;DHT22;25977;45.462;9.210;2024-02-15T05:21:37;11.50;92.20
40257;DHT22;25977;45.462;9.210;2024-02-15T05:24:04;11.50;92.20
40257;DHT22;25977;45.462;9.210;2024-02-15T05:26:30;11.40;92.20
40257;DHT22;25977;45.462;9.210;2024-02-15T05:28:55;11.40;92.30
40257;DHT22;25977;45.462;9.210;2024-02-15T05:31:22;11.40;92.30
40257;DHT22;25977;45.462;9.210;2024-02-15T05:33:51;11.40;92.20
40257;DHT22;25977;45.462;9.210;2024-02-15T05:36:18;11.40;92.20
40257;DHT22;25977;45.462;9.210;2024-02-15T05:38:49;11.40;92.10
40257;DHT22;25977;45.462;9.210;2024-02-15T05:41:14;11.40;92.20
40257;DHT22;25977;45.462;9.210;2024-02-15T05:43:40;11.40;92.10
40257;DHT22;25977;45.462;9.210;2024-02-15T05:46:10;11.40;92.10
40257;DHT22;25977;45.462;9.210;2024-02-15T05:48:36;11.40;92.10
40257;DHT22;25977;45.462;9.210;2024-02-15T05:51:06;11.40;92.00
40257;DHT22;25977;45.462;9.210;2024-02-15T05:53:32;11.30;92.20
40257;DHT22;25977;45.462;9.210;2024-02-15T05:56:02;11.30;91.90
40257;DHT22;25977;45.462;9.210;2024-02-15T05:58:30;11.30;92.00
40257;DHT22;25977;45.462;9.210;2024-02-15T06:00:57;11.30;91.90
40257;DHT22;25977;45.462;9.210;2024-02-15T06:03:31;11.30;91.90
40257;DHT22;25977;45.462;9.210;2024-02-15T06:06:01;11.30;91.90
40257;DHT22;25977;45.462;9.210;2024-02-15T06:08:35;11.30;92.00
40257;DHT22;25977;45.462;9.210;2024-02-15T06:11:01;11.30;92.00
40257;DHT22;25977;45.462;9.210;2024-02-15T06:13:27;11.30;91.90
40257;DHT22;25977;45.462;9.210;2024-02-15T06:15:53;11.30;91.80
40257;DHT22;25977;45.462;9.210;2024-02-15T06:18:20;11.30;92.00
40257;DHT22;25977;45.462;9.210;2024-02-15T06:20:55;11.30;92.10
40257;DHT22;25977;45.462;9.210;2024-02-15T06:23:22;11.30;92.00
40257;DHT22;25977;45.462;9.210;2024-02-15T06:25:51;11.30;92.00
40257;DHT22;25977;45.462;9.210;2024-02-15T06:28:19;11.30;92.20
40257;DHT22;25977;45.462;9.210;2024-02-15T06:31:03;11.30;92.40
40257;DHT22;25977;45.462;9.210;2024-02-15T06:33:47;11.20;91.90
40257;DHT22;25977;45.462;9.210;2024-02-15T06:36:32;11.30;91.90
40257;DHT22;25977;45.462;9.210;2024-02-15T06:39:16;11.30;91.90
40257;DHT22;25977;45.462;9.210;2024-02-15T06:42:01;11.30;92.00
40257;DHT22;25977;45.462;9.210;2024-02-15T06:44:27;11.30;92.10
40257;DHT22;25977;45.462;9.210;2024-02-15T06:46:53;11.30;92.00
40257;DHT22;25977;45.462;9.210;2024-02-15T06:49:20;11.30;91.80
40257;DHT22;25977;45.462;9.210;2024-02-15T06:51:49;11.40;91.90
40257;DHT22;25977;45.462;9.210;2024-02-15T06:54:14;11.40;91.90
40257;DHT22;25977;45.462;9.210;2024-02-15T06:56:40;11.40;92.10
40257;DHT22;25977;45.462;9.210;2024-02-15T06:59:06;11.40;92.00
40257;DHT22;25977;45.462;9.210;2024-02-15T07:01:32;11.40;92.00
40257;DHT22;25977;45.462;9.210;2024-02-15T07:04:00;11.40;91.90
40257;DHT22;25977;45.462;9.210;2024-02-15T07:06:26;11.50;92.10
40257;DHT22;25977;45.462;9.210;2024-02-15T07:08:53;11.50;91.90
40257;DHT22;25977;45.462;9.210;2024-02-15T07:11:21;11.50;92.00
40257;DHT22;25977;45.462;9.210;2024-02-15T07:13:47;11.60;92.10
40257;DHT22;25977;45.462;9.210;2024-02-15T07:16:13;11.70;92.10
40257;DHT22;25977;45.462;9.210;2024-02-15T07:18:41;11.70;91.90
40257;DHT22;25977;45.462;9.210;2024-02-15T07:21:06;11.80;92.10
40257;DHT22;25977;45.462;9.210;2024-02-15T07:23:39;11.80;91.80
40257;DHT22;25977;45.462;9.210;2024-02-15T07:26:07;11.90;91.70
40257;DHT22;25977;45.462;9.210;2024-02-15T07:28:33;11.90;91.80
40257;DHT22;25977;45.462;9.210;2024-02-15T07:30:59;12.00;91.70
40257;DHT22;25977;45.462;9.210;2024-02-15T07:33:28;12.10;91.60
40257;DHT22;25977;45.462;9.210;2024-02-15T07:35:54;12.10;91.40
40257;DHT22;25977;45.462;9.210;2024-02-15T07:38:22;12.10;91.30
40257;DHT22;25977;45.462;9.210;2024-02-15T07:40:49;12.10;91.20
40257;DHT22;25977;45.462;9.210;2024-02-15T07:43:15;12.20;91.10
40257;DHT22;25977;45.462;9.210;2024-02-15T07:45:41;12.20;91.00
40257;DHT22;25977;45.462;9.210;2024-02-15T07:48:07;12.20;90.90
40257;DHT22;25977;45.462;9.210;2024-02-15T07:50:33;12.20;91.00
40257;DHT22;25977;45.462;9.210;2024-02-15T07:52:59;12.20;90.90
40257;DHT22;25977;45.462;9.210;2024-02-15T07:55:25;12.20;91.00
40257;DHT22;25977;45.462;9.210;2024-02-15T07:57:51;12.20;90.90
40257;DHT22;25977;45.462;9.210;2024-02-15T08:00:17;12.20;90.90
40257;DHT22;25977;45.462;9.210;2024-02-15T08:02:43;12.10;90.80
40257;DHT22;25977;45.462;9.210;2024-02-15T08:05:12;12.10;90.70
40257;DHT22;25977;45.462;9.210;2024-02-15T08:07:44;12.20;90.60
40257;DHT22;25977;45.462;9.210;2024-02-15T08:10:11;12.20;90.60
40257;DHT22;25977;45.462;9.210;2024-02-15T08:12:44;12.20;90.70
40257;DHT22;25977;45.462;9.210;2024-02-15T08:15:11;12.20;90.80
40257;DHT22;25977;45.462;9.210;2024-02-15T08:17:44;12.20;90.80
40257;DHT22;25977;45.462;9.210;2024-02-15T08:20:12;12.20;90.80
40257;DHT22;25977;45.462;9.210;2024-02-15T08:22:39;12.30;90.80
40257;DHT22;25977;45.462;9.210;2024-02-15T08:25:12;12.30;90.70
40257;DHT22;25977;45.462;9.210;2024-02-15T08:27:43;12.40;90.70
40257;DHT22;25977;45.462;9.210;2024-02-15T08:30:13;12.50;90.70
40257;DHT22;25977;45.462;9.210;2024-02-15T08:32:39;12.50;90.60
40257;DHT22;25977;45.462;9.210;2024-02-15T08:35:07;12.60;90.60
40257;DHT22;25977;45.462;9.210;2024-02-15T08:37:35;12.70;90.50
40257;DHT22;25977;45.462;9.210;2024-02-15T08:40:04;12.70;90.40
40257;DHT22;25977;45.462;9.210;2024-02-15T08:42:30;12.90;90.40
40257;DHT22;25977;45.462;9.210;2024-02-15T08:44:57;13.00;90.20
40257;DHT22;25977;45.462;9.210;2024-02-15T08:47:24;13.10;90.10
40257;DHT22;25977;45.462;9.210;2024-02-15T08:49:50;13.10;90.00
40257;DHT22;25977;45.462;9.210;2024-02-15T08:52:15;13.10;89.90
40257;DHT22;25977;45.462;9.210;2024-02-15T08:54:44;13.20;90.00
40257;DHT22;25977;45.462;9.210;2024-02-15T08:57:09;13.30;89.60
40257;DHT22;25977;45.462;9.210;2024-02-15T08:59:37;13.20;89.30
40257;DHT22;25977;45.462;9.210;2024-02-15T09:02:04;13.30;89.50
40257;DHT22;25977;45.462;9.210;2024-02-15T09:04:31;13.30;89.20
40257;DHT22;25977;45.462;9.210;2024-02-15T09:06:56;13.40;89.40
40257;DHT22;25977;45.462;9.210;2024-02-15T09:09:22;13.40;89.10
40257;DHT22;25977;45.462;9.210;2024-02-15T09:11:48;13.30;89.10
40257;DHT22;25977;45.462;9.210;2024-02-15T09:14:13;13.20;89.10
40257;DHT22;25977;45.462;9.210;2024-02-15T09:16:39;13.20;89.20
40257;DHT22;25977;45.462;9.210;2024-02-15T09:19:05;13.20;89.20
40257;DHT22;25977;45.462;9.210;2024-02-15T09:21:31;13.30;89.30
40257;DHT22;25977;45.462;9.210;2024-02-15T09:23:59;13.40;89.50
40257;DHT22;25977;45.462;9.210;2024-02-15T09:26:25;13.40;89.00
40257;DHT22;25977;45.462;9.210;2024-02-15T09:28:51;13.50;89.30
40257;DHT22;25977;45.462;9.210;2024-02-15T09:31:16;13.60;89.20
40257;DHT22;25977;45.462;9.210;2024-02-15T09:33:42;13.60;89.30
40257;DHT22;25977;45.462;9.210;2024-02-15T09:36:08;13.60;89.00
40257;DHT22;25977;45.462;9.210;2024-02-15T09:38:33;13.60;89.00
40257;DHT22;25977;45.462;9.210;2024-02-15T09:40:59;13.60;89.20
40257;DHT22;25977;45.462;9.210;2024-02-15T09:43:25;13.70;89.20
40257;DHT22;25977;45.462;9.210;2024-02-15T09:45:55;13.60;89.30
40257;DHT22;25977;45.462;9.210;2024-02-15T09:48:23;13.60;89.20
40257;DHT22;25977;45.462;9.210;2024-02-15T09:50:52;13.60;89.30
40257;DHT22;25977;45.462;9.210;2024-02-15T09:53:21;13.60;89.40
40257;DHT22;25977;45.462;9.210;2024-02-15T09:55:51;13.60;89.50
40257;DHT22;25977;45.462;9.210;2024-02-15T09:58:19;13.50;89.80
40257;DHT22;25977;45.462;9.210;2024-02-15T10:00:45;13.50;90.00
40257;DHT22;25977;45.462;9.210;2024-02-15T10:03:16;13.50;89.90
40257;DHT22;25977;45.462;9.210;2024-02-15T10:05:49;13.50;90.00
40257;DHT22;25977;45.462;9.210;2024-02-15T10:08:16;13.60;90.10
40257;DHT22;25977;45.462;9.210;2024-02-15T10:10:43;13.70;90.00
40257;DHT22;25977;45.462;9.210;2024-02-15T10:13:13;13.90;90.10
40257;DHT22;25977;45.462;9.210;2024-02-15T10:15:39;13.90;89.20
40257;DHT22;25977;45.462;9.210;2024-02-15T10:18:09;14.00;88.80
40257;DHT22;25977;45.462;9.210;2024-02-15T10:20:38;14.10;88.50
40257;DHT22;25977;45.462;9.210;2024-02-15T10:25:34;14.20;88.70
40257;DHT22;25977;45.462;9.210;2024-02-15T10:28:07;14.30;89.00
40257;DHT22;25977;45.462;9.210;2024-02-15T10:30:37;14.30;88.80
40257;DHT22;25977;45.462;9.210;2024-02-15T10:33:05;14.30;88.80
40257;DHT22;25977;45.462;9.210;2024-02-15T10:35:32;14.40;88.70
40257;DHT22;25977;45.462;9.210;2024-02-15T10:38:07;14.40;88.70
40257;DHT22;25977;45.462;9.210;2024-02-15T10:40:33;14.40;88.70
40257;DHT22;25977;45.462;9.210;2024-02-15T10:43:03;14.40;88.70
40257;DHT22;25977;45.462;9.210;2024-02-15T10:45:30;14.40;89.00
40257;DHT22;25977;45.462;9.210;2024-02-15T10:47:56;14.40;88.90
40257;DHT22;25977;45.462;9.210;2024-02-15T10:50:23;14.40;88.90
40257;DHT22;25977;45.462;9.210;2024-02-15T10:52:59;14.30;88.90
40257;DHT22;25977;45.462;9.210;2024-02-15T10:55:48;14.00;89.30
40257;DHT22;25977;45.462;9.210;2024-02-15T10:58:20;14.20;89.40
40257;DHT22;25977;45.462;9.210;2024-02-15T11:00:49;14.20;89.60
40257;DHT22;25977;45.462;9.210;2024-02-15T11:03:27;14.20;89.90
40257;DHT22;25977;45.462;9.210;2024-02-15T11:05:55;14.30;89.90
40257;DHT22;25977;45.462;9.210;2024-02-15T11:08:23;14.30;89.70
40257;DHT22;25977;45.462;9.210;2024-02-15T11:10:49;14.00;90.00
40257;DHT22;25977;45.462;9.210;2024-02-15T11:13:15;14.10;90.10
40257;DHT22;25977;45.462;9.210;2024-02-15T11:15:45;14.00;90.30
40257;DHT22;25977;45.462;9.210;2024-02-15T11:18:12;14.10;90.60
40257;DHT22;25977;45.462;9.210;2024-02-15T11:23:07;14.20;90.40
40257;DHT22;25977;45.462;9.210;2024-02-15T11:25:38;14.30;90.40
40257;DHT22;25977;45.462;9.210;2024-02-15T11:30:55;14.40;90.30
40257;DHT22;25977;45.462;9.210;2024-02-15T11:33:27;14.40;90.30
40257;DHT22;25977;45.462;9.210;2024-02-15T11:36:07;14.50;90.40
40257;DHT22;25977;45.462;9.210;2024-02-15T11:38:34;14.50;90.30
40257;DHT22;25977;45.462;9.210;2024-02-15T11:41:04;14.50;90.40
40257;DHT22;25977;45.462;9.210;2024-02-15T11:43:52;14.50;90.50
40257;DHT22;25977;45.462;9.210;2024-02-15T11:46:22;14.50;90.50
40257;DHT22;25977;45.462;9.210;2024-02-15T11:48:51;14.50;90.50
40257;DHT22;25977;45.462;9.210;2024-02-15T11:51:30;14.60;90.50
40257;DHT22;25977;45.462;9.210;2024-02-15T11:54:04;14.60;90.50
40257;DHT22;25977;45.462;9.210;2024-02-15T11:56:32;14.60;90.60
40257;DHT22;25977;45.462;9.210;2024-02-15T11:59:04;14.60;90.50
40257;DHT22;25977;45.462;9.210;2024-02-15T12:01:32;14.60;90.40
40257;DHT22;25977;45.462;9.210;2024-02-15T12:04:18;14.70;90.50
40257;DHT22;25977;45.462;9.210;2024-02-15T12:07:02;14.70;90.50
40257;DHT22;25977;45.462;9.210;2024-02-15T12:09:46;14.70;90.50
40257;DHT22;25977;45.462;9.210;2024-02-15T12:12:30;14.80;90.50
40257;DHT22;25977;45.462;9.210;2024-02-15T12:15:15;14.80;90.40
40257;DHT22;25977;45.462;9.210;2024-02-15T12:18:17;14.70;90.30
40257;DHT22;25977;45.462;9.210;2024-02-15T12:21:02;14.80;90.50
40257;DHT22;25977;45.462;9.210;2024-02-15T12:23:29;14.90;90.50
40257;DHT22;25977;45.462;9.210;2024-02-15T12:25:59;14.90;90.60
40257;DHT22;25977;45.462;9.210;2024-02-15T12:28:25;14.80;90.50
40257;DHT22;25977;45.462;9.210;2024-02-15T12:30:55;14.90;90.50
40257;DHT22;25977;45.462;9.210;2024-02-15T12:33:24;14.90;90.50
40257;DHT22;25977;45.462;9.210;2024-02-15T12:35:50;14.90;90.20
40257;DHT22;25977;45.462;9.210;2024-02-15T12:38:16;15.00;90.20
40257;DHT22;25977;45.462;9.210;2024-02-15T12:40:42;14.90;90.20
40257;DHT22;25977;45.462;9.210;2024-02-15T12:43:11;15.00;90.40
40257;DHT22;25977;45.462;9.210;2024-02-15T12:45:41;15.00;90.50
40257;DHT22;25977;45.462;9.210;2024-02-15T12:48:08;15.10;90.30
40257;DHT22;25977;45.462;9.210;2024-02-15T12:50:35;15.10;90.30
40257;DHT22;25977;45.462;9.210;2024-02-15T12:53:01;15.20;90.10
40257;DHT22;25977;45.462;9.210;2024-02-15T12:55:35;15.20;89.80
40257;DHT22;25977;45.462;9.210;2024-02-15T12:58:04;15.30;89.90
40257;DHT22;25977;45.462;9.210;2024-02-15T13:00:34;15.30;89.60
40257;DHT22;25977;45.462;9.210;2024-02-15T13:03:03;15.30;89.40
40257;DHT22;25977;45.462;9.210;2024-02-15T13:05:31;15.40;89.40
40257;DHT22;25977;45.462;9.210;2024-02-15T13:07:57;15.40;89.20
40257;DHT22;25977;45.462;9.210;2024-02-15T13:10:23;15.40;89.30
40257;DHT22;25977;45.462;9.210;2024-02-15T13:12:52;15.40;89.30
40257;DHT22;25977;45.462;9.210;2024-02-15T13:15:19;15.40;89.10
40257;DHT22;25977;45.462;9.210;2024-02-15T13:17:50;15.40;88.70
40257;DHT22;25977;45.462;9.210;2024-02-15T13:20:20;15.40;88.30
40257;DHT22;25977;45.462;9.210;2024-02-15T13:22:53;15.40;88.50
40257;DHT22;25977;45.462;9.210;2024-02-15T13:25:19;15.40;88.80
40257;DHT22;25977;45.462;9.210;2024-02-15T13:27:47;15.50;88.80
40257;DHT22;25977;45.462;9.210;2024-02-15T13:30:13;15.30;88.70
40257;DHT22;25977;45.462;9.210;2024-02-15T13:32:39;15.40;88.70
40257;DHT22;25977;45.462;9.210;2024-02-15T13:35:08;15.50;88.50
40257;DHT22;25977;45.462;9.210;2024-02-15T13:37:46;15.50;88.00
40257;DHT22;25977;45.462;9.210;2024-02-15T13:40:12;15.20;87.40
40257;DHT22;25977;45.462;9.210;2024-02-15T13:42:42;15.10;88.00
40257;DHT22;25977;45.462;9.210;2024-02-15T13:45:12;15.20;88.30
40257;DHT22;25977;45.462;9.210;2024-02-15T13:47:39;15.30;88.10
40257;DHT22;25977;45.462;9.210;2024-02-15T13:50:05;15.40;87.60
40257;DHT22;25977;45.462;9.210;2024-02-15T13:52:31;15.50;87.30
40257;DHT22;25977;45.462;9.210;2024-02-15T13:54:56;15.50;87.00
40257;DHT22;25977;45.462;9.210;2024-02-15T13:57:22;15.60;86.90
40257;DHT22;25977;45.462;9.210;2024-02-15T13:59:48;15.70;86.50
40257;DHT22;25977;45.462;9.210;2024-02-15T14:02:14;15.70;86.40
40257;DHT22;25977;45.462;9.210;2024-02-15T14:04:40;15.60;86.60
40257;DHT22;25977;45.462;9.210;2024-02-15T14:07:05;15.30;86.80
40257;DHT22;25977;45.462;9.210;2024-02-15T14:09:31;15.40;86.90
40257;DHT22;25977;45.462;9.210;2024-02-15T14:11:57;15.50;86.90
40257;DHT22;25977;45.462;9.210;2024-02-15T14:14:23;15.50;86.60
40257;DHT22;25977;45.462;9.210;2024-02-15T14:16:49;15.50;86.70
40257;DHT22;25977;45.462;9.210;2024-02-15T14:19:14;15.50;86.90
40257;DHT22;25977;45.462;9.210;2024-02-15T14:21:40;15.50;87.00
40257;DHT22;25977;45.462;9.210;2024-02-15T14:24:08;15.50;87.10
40257;DHT22;25977;45.462;9.210;2024-02-15T14:26:34;15.50;87.10
40257;DHT22;25977;45.462;9.210;2024-02-15T14:28:59;15.40;86.80
40257;DHT22;25977;45.462;9.210;2024-02-15T14:31:28;15.50;86.90
40257;DHT22;25977;45.462;9.210;2024-02-15T14:34:13;15.40;86.90
40257;DHT22;25977;45.462;9.210;2024-02-15T14:36:41;15.40;86.40
40257;DHT22;25977;45.462;9.210;2024-02-15T14:39:08;15.40;86.00
40257;DHT22;25977;45.462;9.210;2024-02-15T14:41:35;15.40;86.10
40257;DHT22;25977;45.462;9.210;2024-02-15T14:44:00;15.40;85.70
40257;DHT22;25977;45.462;9.210;2024-02-15T14:46:26;15.40;85.50
40257;DHT22;25977;45.462;9.210;2024-02-15T14:48:52;15.30;85.70
40257;DHT22;25977;45.462;9.210;2024-02-15T14:51:20;15.30;86.00
40257;DHT22;25977;45.462;9.210;2024-02-15T14:53:45;15.30;86.20
40257;DHT22;25977;45.462;9.210;2024-02-15T14:56:11;15.40;86.40
40257;DHT22;25977;45.462;9.210;2024-02-15T14:58:37;15.30;86.10
40257;DHT22;25977;45.462;9.210;2024-02-15T15:01:03;15.30;86.20
40257;DHT22;25977;45.462;9.210;2024-02-15T15:03:30;15.30;86.00
40257;DHT22;25977;45.462;9.210;2024-02-15T15:06:00;15.30;86.20
40257;DHT22;25977;45.462;9.210;2024-02-15T15:08:43;15.30;85.90
40257;DHT22;25977;45.462;9.210;2024-02-15T15:11:38;15.30;85.80
40257;DHT22;25977;45.462;9.210;2024-02-15T15:14:23;15.20;84.80
40257;DHT22;25977;45.462;9.210;2024-02-15T15:16:49;15.00;86.30
40257;DHT22;25977;45.462;9.210;2024-02-15T15:19:15;14.90;86.90
40257;DHT22;25977;45.462;9.210;2024-02-15T15:21:41;15.00;86.50
40257;DHT22;25977;45.462;9.210;2024-02-15T15:24:08;15.00;86.70
40257;DHT22;25977;45.462;9.210;2024-02-15T15:26:35;15.10;87.10
40257;DHT22;25977;45.462;9.210;2024-02-15T15:29:01;15.10;87.20
40257;DHT22;25977;45.462;9.210;2024-02-15T15:31:27;15.10;87.30
40257;DHT22;25977;45.462;9.210;2024-02-15T15:33:55;15.10;87.70
40257;DHT22;25977;45.462;9.210;2024-02-15T15:36:21;15.10;87.80
40257;DHT22;25977;45.462;9.210;2024-02-15T15:38:47;15.10;87.60
40257;DHT22;25977;45.462;9.210;2024-02-15T15:41:13;15.10;87.90
40257;DHT22;25977;45.462;9.210;2024-02-15T15:43:38;15.10;88.10
40257;DHT22;25977;45.462;9.210;2024-02-15T15:46:05;15.00;88.90